ZM-0016 weather

Silver Rest Airport
Silver Rest, Lusaka Province, Zambia

Public forecast

Using degrees Celsius for public forecast. Weather courtesy of forecast.io.

METAR (pilot weather report)

Closest report is Kenneth Kaunda International Airport Lusaka, 5.5 nm (10.2 km) WNW. Retrieved 2019/08/23 10:00 UTC (31 seconds ago):

FLKK 231000Z 09016KT 9999 FEW035 22/02 Q1028

TAF (pilot weather forecast)

Forecast is more than 12 hours old.

Closest forecast is Kenneth Kaunda International Airport Lusaka, 5.5 nm (10.2 km) WNW. Retrieved 2019/08/22 18:00 UTC (16 hours ago):

TAF FLKK 221600Z 2218/2324 14005KT CAVOK BECMG 2304/2306 08010KT 9000 HZ NSC BECMG 2306/2308 SCT020 BECMG 2311/2313 11010KT NSC